sensor_id;sensor_type;location;lat;lon;timestamp;temperature;humidity
8633;DHT22;4354;49.832;10.746;2023-07-08T00:01:18;13.80;99.90
8633;DHT22;4354;49.832;10.746;2023-07-08T00:03:46;13.70;1.00
8633;DHT22;4354;49.832;10.746;2023-07-08T00:06:22;13.70;1.00
8633;DHT22;4354;49.832;10.746;2023-07-08T00:08:49;13.60;1.00
8633;DHT22;4354;49.832;10.746;2023-07-08T00:11:16;13.50;1.00
8633;DHT22;4354;49.832;10.746;2023-07-08T00:13:43;13.50;1.00
8633;DHT22;4354;49.832;10.746;2023-07-08T00:16:16;13.30;1.00
8633;DHT22;4354;49.832;10.746;2023-07-08T00:18:44;13.30;1.00
8633;DHT22;4354;49.832;10.746;2023-07-08T00:21:13;13.30;99.90
8633;DHT22;4354;49.832;10.746;2023-07-08T00:23:46;13.20;9.90
8633;DHT22;4354;49.832;10.746;2023-07-08T00:26:26;13.10;1.00
8633;DHT22;4354;49.832;10.746;2023-07-08T00:28:54;13.00;1.00
8633;DHT22;4354;49.832;10.746;2023-07-08T00:31:23;13.10;99.90
8633;DHT22;4354;49.832;10.746;2023-07-08T00:33:54;13.20;99.90
8633;DHT22;4354;49.832;10.746;2023-07-08T00:36:26;13.40;99.90
8633;DHT22;4354;49.832;10.746;2023-07-08T00:38:53;13.50;1.00
8633;DHT22;4354;49.832;10.746;2023-07-08T00:41:28;13.30;1.00
8633;DHT22;4354;49.832;10.746;2023-07-08T00:43:57;13.30;99.90
8633;DHT22;4354;49.832;10.746;2023-07-08T00:46:30;13.10;1.00
8633;DHT22;4354;49.832;10.746;2023-07-08T00:51:39;13.00;1.00
8633;DHT22;4354;49.832;10.746;2023-07-08T00:54:13;12.90;1.00
8633;DHT22;4354;49.832;10.746;2023-07-08T00:56:59;12.80;36.10
8633;DHT22;4354;49.832;10.746;2023-07-08T00:59:31;12.90;1.00
8633;DHT22;4354;49.832;10.746;2023-07-08T01:02:01;13.10;99.90
8633;DHT22;4354;49.832;10.746;2023-07-08T01:04:34;13.20;99.90
8633;DHT22;4354;49.832;10.746;2023-07-08T01:07:04;13.10;1.00
8633;DHT22;4354;49.832;10.746;2023-07-08T01:09:34;13.10;1.00
8633;DHT22;4354;49.832;10.746;2023-07-08T01:12:05;13.00;99.90
8633;DHT22;4354;49.832;10.746;2023-07-08T01:14:36;13.00;99.90
8633;DHT22;4354;49.832;10.746;2023-07-08T01:17:05;13.10;99.90
8633;DHT22;4354;49.832;10.746;2023-07-08T01:19:32;12.90;99.90
8633;DHT22;4354;49.832;10.746;2023-07-08T01:22:00;12.80;99.90
8633;DHT22;4354;49.832;10.746;2023-07-08T01:24:28;12.70;1.00
8633;DHT22;4354;49.832;10.746;2023-07-08T01:26:56;12.70;99.90
8633;DHT22;4354;49.832;10.746;2023-07-08T01:29:23;12.60;86.80
8633;DHT22;4354;49.832;10.746;2023-07-08T01:31:51;12.60;1.00
8633;DHT22;4354;49.832;10.746;2023-07-08T01:34:18;12.50;56.40
8633;DHT22;4354;49.832;10.746;2023-07-08T01:36:51;12.50;99.90
8633;DHT22;4354;49.832;10.746;2023-07-08T01:39:21;12.50;99.90
8633;DHT22;4354;49.832;10.746;2023-07-08T01:41:48;12.50;1.00
8633;DHT22;4354;49.832;10.746;2023-07-08T01:47:02;12.70;1.00
8633;DHT22;4354;49.832;10.746;2023-07-08T01:49:31;12.70;1.00
8633;DHT22;4354;49.832;10.746;2023-07-08T01:52:02;12.50;1.00
8633;DHT22;4354;49.832;10.746;2023-07-08T01:54:29;12.50;1.00
8633;DHT22;4354;49.832;10.746;2023-07-08T01:56:57;12.50;71.60
8633;DHT22;4354;49.832;10.746;2023-07-08T01:59:24;12.60;1.00
8633;DHT22;4354;49.832;10.746;2023-07-08T02:01:52;12.40;1.00
8633;DHT22;4354;49.832;10.746;2023-07-08T02:04:22;12.50;99.90
8633;DHT22;4354;49.832;10.746;2023-07-08T02:06:54;12.40;22.80
8633;DHT22;4354;49.832;10.746;2023-07-08T02:09:22;12.40;41.20
8633;DHT22;4354;49.832;10.746;2023-07-08T02:11:49;12.40;99.90
8633;DHT22;4354;49.832;10.746;2023-07-08T02:14:16;12.40;89.90
8633;DHT22;4354;49.832;10.746;2023-07-08T02:16:42;12.30;1.00
8633;DHT22;4354;49.832;10.746;2023-07-08T02:19:13;12.30;1.00
8633;DHT22;4354;49.832;10.746;2023-07-08T02:21:40;12.40;99.90
8633;DHT22;4354;49.832;10.746;2023-07-08T02:24:07;12.30;20.50
8633;DHT22;4354;49.832;10.746;2023-07-08T02:26:34;12.40;28.00
8633;DHT22;4354;49.832;10.746;2023-07-08T02:29:01;12.60;99.90
8633;DHT22;4354;49.832;10.746;2023-07-08T02:31:28;12.50;1.00
8633;DHT22;4354;49.832;10.746;2023-07-08T02:33:55;12.40;1.00
8633;DHT22;4354;49.832;10.746;2023-07-08T02:36:22;12.40;99.90
8633;DHT22;4354;49.832;10.746;2023-07-08T02:38:49;12.40;1.00
8633;DHT22;4354;49.832;10.746;2023-07-08T02:41:16;12.30;99.90
8633;DHT22;4354;49.832;10.746;2023-07-08T02:43:43;12.20;1.00
8633;DHT22;4354;49.832;10.746;2023-07-08T02:46:09;12.10;1.00
8633;DHT22;4354;49.832;10.746;2023-07-08T02:48:36;12.10;99.90
8633;DHT22;4354;49.832;10.746;2023-07-08T02:51:05;12.00;99.90
8633;DHT22;4354;49.832;10.746;2023-07-08T02:53:32;11.90;99.90
8633;DHT22;4354;49.832;10.746;2023-07-08T02:55:59;11.90;1.00
8633;DHT22;4354;49.832;10.746;2023-07-08T02:58:26;11.80;1.00
8633;DHT22;4354;49.832;10.746;2023-07-08T03:00:53;11.90;1.00
8633;DHT22;4354;49.832;10.746;2023-07-08T03:03:21;11.90;1.00
8633;DHT22;4354;49.832;10.746;2023-07-08T03:06:00;11.80;1.00
8633;DHT22;4354;49.832;10.746;2023-07-08T03:08:27;11.80;1.00
8633;DHT22;4354;49.832;10.746;2023-07-08T03:11:06;11.80;1.00
8633;DHT22;4354;49.832;10.746;2023-07-08T03:13:34;11.80;1.00
8633;DHT22;4354;49.832;10.746;2023-07-08T03:16:02;11.90;99.90
8633;DHT22;4354;49.832;10.746;2023-07-08T03:18:29;11.80;99.90
8633;DHT22;4354;49.832;10.746;2023-07-08T03:20:57;11.80;1.00
8633;DHT22;4354;49.832;10.746;2023-07-08T03:23:25;11.80;1.00
8633;DHT22;4354;49.832;10.746;2023-07-08T03:25:53;11.60;1.00
8633;DHT22;4354;49.832;10.746;2023-07-08T03:28:19;11.70;1.00
8633;DHT22;4354;49.832;10.746;2023-07-08T03:30:52;11.70;1.00
8633;DHT22;4354;49.832;10.746;2023-07-08T03:33:20;11.80;99.90
8633;DHT22;4354;49.832;10.746;2023-07-08T03:35:47;11.90;99.90
8633;DHT22;4354;49.832;10.746;2023-07-08T03:38:14;12.00;1.00
8633;DHT22;4354;49.832;10.746;2023-07-08T03:40:40;12.10;99.90
8633;DHT22;4354;49.832;10.746;2023-07-08T03:43:07;12.20;99.90
8633;DHT22;4354;49.832;10.746;2023-07-08T03:45:34;12.20;99.90
8633;DHT22;4354;49.832;10.746;2023-07-08T03:48:01;12.20;1.00
8633;DHT22;4354;49.832;10.746;2023-07-08T03:50:28;12.20;99.90
8633;DHT22;4354;49.832;10.746;2023-07-08T03:52:55;12.10;99.90
8633;DHT22;4354;49.832;10.746;2023-07-08T03:55:23;12.10;1.00
8633;DHT22;4354;49.832;10.746;2023-07-08T03:57:50;12.00;99.90
8633;DHT22;4354;49.832;10.746;2023-07-08T04:00:17;11.90;99.90
8633;DHT22;4354;49.832;10.746;2023-07-08T04:02:45;11.80;1.00
8633;DHT22;4354;49.832;10.746;2023-07-08T04:05:16;11.80;1.00
8633;DHT22;4354;49.832;10.746;2023-07-08T04:07:44;11.80;1.00
8633;DHT22;4354;49.832;10.746;2023-07-08T04:10:11;11.80;1.00
8633;DHT22;4354;49.832;10.746;2023-07-08T04:12:39;11.80;1.00
8633;DHT22;4354;49.832;10.746;2023-07-08T04:15:08;11.80;1.00
8633;DHT22;4354;49.832;10.746;2023-07-08T04:17:40;11.90;1.00
8633;DHT22;4354;49.832;10.746;2023-07-08T04:20:09;12.00;99.90
8633;DHT22;4354;49.832;10.746;2023-07-08T04:22:37;12.10;1.00
8633;DHT22;4354;49.832;10.746;2023-07-08T04:25:04;12.20;1.00
8633;DHT22;4354;49.832;10.746;2023-07-08T04:27:32;12.40;1.00
8633;DHT22;4354;49.832;10.746;2023-07-08T04:29:59;12.40;99.90
8633;DHT22;4354;49.832;10.746;2023-07-08T04:32:26;12.50;99.90
8633;DHT22;4354;49.832;10.746;2023-07-08T04:34:53;13.00;99.90
8633;DHT22;4354;49.832;10.746;2023-07-08T04:37:19;12.60;99.90
8633;DHT22;4354;49.832;10.746;2023-07-08T04:39:46;12.60;99.90
8633;DHT22;4354;49.832;10.746;2023-07-08T04:42:14;12.80;1.00
8633;DHT22;4354;49.832;10.746;2023-07-08T04:44:42;12.80;99.90
8633;DHT22;4354;49.832;10.746;2023-07-08T04:47:09;12.90;1.00
8633;DHT22;4354;49.832;10.746;2023-07-08T04:49:38;12.90;1.00
8633;DHT22;4354;49.832;10.746;2023-07-08T04:52:08;13.00;1.00
8633;DHT22;4354;49.832;10.746;2023-07-08T04:54:35;13.10;99.90
8633;DHT22;4354;49.832;10.746;2023-07-08T04:57:01;13.10;1.00
8633;DHT22;4354;49.832;10.746;2023-07-08T04:59:28;13.20;1.00
8633;DHT22;4354;49.832;10.746;2023-07-08T05:01:55;13.30;1.00
8633;DHT22;4354;49.832;10.746;2023-07-08T05:04:23;13.30;1.00
8633;DHT22;4354;49.832;10.746;2023-07-08T05:06:50;13.40;99.90
8633;DHT22;4354;49.832;10.746;2023-07-08T05:09:17;13.50;1.00
8633;DHT22;4354;49.832;10.746;2023-07-08T05:11:44;13.50;99.90
8633;DHT22;4354;49.832;10.746;2023-07-08T05:14:12;13.70;99.90
8633;DHT22;4354;49.832;10.746;2023-07-08T05:16:39;13.40;99.90
8633;DHT22;4354;49.832;10.746;2023-07-08T05:19:07;13.90;99.90
8633;DHT22;4354;49.832;10.746;2023-07-08T05:21:34;14.00;1.00
8633;DHT22;4354;49.832;10.746;2023-07-08T05:24:02;14.10;1.00
8633;DHT22;4354;49.832;10.746;2023-07-08T05:26:30;14.20;1.00
8633;DHT22;4354;49.832;10.746;2023-07-08T05:28:57;14.30;1.00
8633;DHT22;4354;49.832;10.746;2023-07-08T05:31:24;14.40;1.00
8633;DHT22;4354;49.832;10.746;2023-07-08T05:34:11;14.50;1.00
8633;DHT22;4354;49.832;10.746;2023-07-08T05:36:37;14.60;1.00
8633;DHT22;4354;49.832;10.746;2023-07-08T05:39:05;14.80;99.90
8633;DHT22;4354;49.832;10.746;2023-07-08T05:41:32;14.90;1.00
8633;DHT22;4354;49.832;10.746;2023-07-08T05:43:59;15.00;99.90
8633;DHT22;4354;49.832;10.746;2023-07-08T05:46:26;15.20;99.90
8633;DHT22;4354;49.832;10.746;2023-07-08T05:48:52;15.30;99.90
8633;DHT22;4354;49.832;10.746;2023-07-08T05:51:20;15.50;1.00
8633;DHT22;4354;49.832;10.746;2023-07-08T05:53:47;15.60;1.00
8633;DHT22;4354;49.832;10.746;2023-07-08T05:56:14;15.70;99.90
8633;DHT22;4354;49.832;10.746;2023-07-08T05:58:41;15.90;99.90
8633;DHT22;4354;49.832;10.746;2023-07-08T06:01:08;16.10;99.90
8633;DHT22;4354;49.832;10.746;2023-07-08T06:03:36;16.20;99.90
8633;DHT22;4354;49.832;10.746;2023-07-08T06:06:03;16.50;61.30
8633;DHT22;4354;49.832;10.746;2023-07-08T06:08:34;16.70;1.00
8633;DHT22;4354;49.832;10.746;2023-07-08T06:11:01;17.00;1.00
8633;DHT22;4354;49.832;10.746;2023-07-08T06:13:28;17.20;1.00
8633;DHT22;4354;49.832;10.746;2023-07-08T06:15:55;17.50;1.00
8633;DHT22;4354;49.832;10.746;2023-07-08T06:18:22;17.80;1.00
8633;DHT22;4354;49.832;10.746;2023-07-08T06:20:56;18.10;1.00
8633;DHT22;4354;49.832;10.746;2023-07-08T06:23:24;18.50;1.00
8633;DHT22;4354;49.832;10.746;2023-07-08T06:25:52;19.00;99.90
8633;DHT22;4354;49.832;10.746;2023-07-08T06:28:19;19.60;99.90
8633;DHT22;4354;49.832;10.746;2023-07-08T06:30:47;20.20;99.90
8633;DHT22;4354;49.832;10.746;2023-07-08T06:33:13;20.90;99.90
8633;DHT22;4354;49.832;10.746;2023-07-08T06:35:41;21.80;99.90
8633;DHT22;4354;49.832;10.746;2023-07-08T06:38:08;23.10;99.90
8633;DHT22;4354;49.832;10.746;2023-07-08T06:40:35;24.40;97.10
8633;DHT22;4354;49.832;10.746;2023-07-08T06:43:03;25.70;37.20
8633;DHT22;4354;49.832;10.746;2023-07-08T06:45:30;27.00;8.50
8633;DHT22;4354;49.832;10.746;2023-07-08T06:47:57;28.00;1.00
8633;DHT22;4354;49.832;10.746;2023-07-08T06:50:24;28.70;1.00
8633;DHT22;4354;49.832;10.746;2023-07-08T06:52:50;29.20;1.00
8633;DHT22;4354;49.832;10.746;2023-07-08T06:55:17;29.80;1.00
8633;DHT22;4354;49.832;10.746;2023-07-08T06:57:44;30.80;1.00
8633;DHT22;4354;49.832;10.746;2023-07-08T07:00:11;31.50;1.00
8633;DHT22;4354;49.832;10.746;2023-07-08T07:02:38;32.20;1.00
8633;DHT22;4354;49.832;10.746;2023-07-08T07:05:06;32.70;1.00
8633;DHT22;4354;49.832;10.746;2023-07-08T07:07:33;33.20;1.00
8633;DHT22;4354;49.832;10.746;2023-07-08T07:10:02;33.50;1.00
8633;DHT22;4354;49.832;10.746;2023-07-08T07:12:30;33.60;1.00
8633;DHT22;4354;49.832;10.746;2023-07-08T07:14:57;34.10;1.00
8633;DHT22;4354;49.832;10.746;2023-07-08T07:17:24;34.40;1.00
8633;DHT22;4354;49.832;10.746;2023-07-08T07:19:53;35.00;1.00
8633;DHT22;4354;49.832;10.746;2023-07-08T07:22:20;35.40;1.00
8633;DHT22;4354;49.832;10.746;2023-07-08T07:24:47;35.90;1.00
8633;DHT22;4354;49.832;10.746;2023-07-08T07:27:14;36.20;1.00
8633;DHT22;4354;49.832;10.746;2023-07-08T07:29:49;36.60;1.00
8633;DHT22;4354;49.832;10.746;2023-07-08T07:32:18;36.80;1.00
8633;DHT22;4354;49.832;10.746;2023-07-08T07:34:49;36.80;1.00
8633;DHT22;4354;49.832;10.746;2023-07-08T07:37:18;37.50;1.00
8633;DHT22;4354;49.832;10.746;2023-07-08T07:39:45;38.00;1.00
8633;DHT22;4354;49.832;10.746;2023-07-08T07:42:13;38.20;1.00
8633;DHT22;4354;49.832;10.746;2023-07-08T07:44:43;38.30;1.00
8633;DHT22;4354;49.832;10.746;2023-07-08T07:47:10;38.40;1.00
8633;DHT22;4354;49.832;10.746;2023-07-08T07:49:38;39.10;1.00
8633;DHT22;4354;49.832;10.746;2023-07-08T07:52:05;39.20;1.00
8633;DHT22;4354;49.832;10.746;2023-07-08T07:54:32;39.20;1.00
8633;DHT22;4354;49.832;10.746;2023-07-08T07:56:59;39.30;1.00
8633;DHT22;4354;49.832;10.746;2023-07-08T07:59:26;39.90;1.00
8633;DHT22;4354;49.832;10.746;2023-07-08T08:01:53;40.20;1.00
8633;DHT22;4354;49.832;10.746;2023-07-08T08:04:20;40.50;1.00
8633;DHT22;4354;49.832;10.746;2023-07-08T08:06:47;41.40;1.00
8633;DHT22;4354;49.832;10.746;2023-07-08T08:09:14;41.50;1.00
8633;DHT22;4354;49.832;10.746;2023-07-08T08:11:41;41.80;1.00
8633;DHT22;4354;49.832;10.746;2023-07-08T08:14:07;42.10;1.00
8633;DHT22;4354;49.832;10.746;2023-07-08T08:16:34;41.30;1.00
8633;DHT22;4354;49.832;10.746;2023-07-08T08:19:01;41.20;1.00
8633;DHT22;4354;49.832;10.746;2023-07-08T08:21:28;40.00;1.00
8633;DHT22;4354;49.832;10.746;2023-07-08T08:23:55;40.00;1.00
8633;DHT22;4354;49.832;10.746;2023-07-08T08:26:21;40.50;1.00
8633;DHT22;4354;49.832;10.746;2023-07-08T08:28:48;40.30;1.00
8633;DHT22;4354;49.832;10.746;2023-07-08T08:31:15;39.80;1.00
8633;DHT22;4354;49.832;10.746;2023-07-08T08:33:42;40.50;1.00
8633;DHT22;4354;49.832;10.746;2023-07-08T08:36:09;40.60;1.00
8633;DHT22;4354;49.832;10.746;2023-07-08T08:38:35;40.20;1.00
8633;DHT22;4354;49.832;10.746;2023-07-08T08:41:18;40.80;1.00
8633;DHT22;4354;49.832;10.746;2023-07-08T08:43:47;41.10;1.00
8633;DHT22;4354;49.832;10.746;2023-07-08T08:46:36;40.70;1.00
8633;DHT22;4354;49.832;10.746;2023-07-08T08:51:40;40.70;1.00
8633;DHT22;4354;49.832;10.746;2023-07-08T08:54:07;41.10;1.00
8633;DHT22;4354;49.832;10.746;2023-07-08T08:57:00;41.40;1.00
8633;DHT22;4354;49.832;10.746;2023-07-08T09:05:19;41.10;1.00
8633;DHT22;4354;49.832;10.746;2023-07-08T09:07:59;40.40;1.00
8633;DHT22;4354;49.832;10.746;2023-07-08T09:13:30;40.80;1.00
8633;DHT22;4354;49.832;10.746;2023-07-08T09:18:56;41.70;1.00
8633;DHT22;4354;49.832;10.746;2023-07-08T09:21:31;41.30;1.00
8633;DHT22;4354;49.832;10.746;2023-07-08T09:24:07;40.20;1.00
8633;DHT22;4354;49.832;10.746;2023-07-08T09:26:36;41.10;1.00
8633;DHT22;4354;49.832;10.746;2023-07-08T09:29:08;41.40;1.00
8633;DHT22;4354;49.832;10.746;2023-07-08T09:31:40;42.00;1.00
8633;DHT22;4354;49.832;10.746;2023-07-08T09:34:15;41.90;1.00
8633;DHT22;4354;49.832;10.746;2023-07-08T09:36:45;41.90;1.00
8633;DHT22;4354;49.832;10.746;2023-07-08T09:39:17;42.10;1.00
8633;DHT22;4354;49.832;10.746;2023-07-08T09:41:47;41.60;1.00
8633;DHT22;4354;49.832;10.746;2023-07-08T09:44:28;41.40;1.00
8633;DHT22;4354;49.832;10.746;2023-07-08T09:46:59;40.70;1.00
8633;DHT22;4354;49.832;10.746;2023-07-08T09:49:35;41.00;1.00
8633;DHT22;4354;49.832;10.746;2023-07-08T09:52:03;41.40;1.00
8633;DHT22;4354;49.832;10.746;2023-07-08T09:54:31;41.70;1.00
8633;DHT22;4354;49.832;10.746;2023-07-08T09:59:47;42.40;1.00
8633;DHT22;4354;49.832;10.746;2023-07-08T10:02:40;43.00;1.00
8633;DHT22;4354;49.832;10.746;2023-07-08T10:05:38;43.30;1.00
8633;DHT22;4354;49.832;10.746;2023-07-08T10:08:22;43.70;1.00
8633;DHT22;4354;49.832;10.746;2023-07-08T10:11:16;42.10;1.00
8633;DHT22;4354;49.832;10.746;2023-07-08T10:13:49;41.10;1.00
8633;DHT22;4354;49.832;10.746;2023-07-08T10:16:34;41.00;1.00
8633;DHT22;4354;49.832;10.746;2023-07-08T10:19:04;41.20;1.00
8633;DHT22;4354;49.832;10.746;2023-07-08T10:27:02;41.90;1.00
8633;DHT22;4354;49.832;10.746;2023-07-08T10:29:40;42.40;1.00
8633;DHT22;4354;49.832;10.746;2023-07-08T10:35:19;43.10;1.00
8633;DHT22;4354;49.832;10.746;2023-07-08T10:40:54;44.20;1.00
8633;DHT22;4354;49.832;10.746;2023-07-08T10:51:44;43.00;1.00
8633;DHT22;4354;49.832;10.746;2023-07-08T11:10:40;43.50;1.00
8633;DHT22;4354;49.832;10.746;2023-07-08T11:13:20;43.00;1.00
8633;DHT22;4354;49.832;10.746;2023-07-08T11:16:14;42.70;1.00
8633;DHT22;4354;49.832;10.746;2023-07-08T11:19:04;42.90;1.00
8633;DHT22;4354;49.832;10.746;2023-07-08T11:21:37;42.20;1.00
8633;DHT22;4354;49.832;10.746;2023-07-08T11:24:34;41.00;1.00
8633;DHT22;4354;49.832;10.746;2023-07-08T11:27:06;40.60;1.00
8633;DHT22;4354;49.832;10.746;2023-07-08T11:29:38;40.20;1.00
8633;DHT22;4354;49.832;10.746;2023-07-08T11:32:10;40.10;1.00
8633;DHT22;4354;49.832;10.746;2023-07-08T11:34:41;40.60;1.00
8633;DHT22;4354;49.832;10.746;2023-07-08T11:37:10;39.80;1.00
8633;DHT22;4354;49.832;10.746;2023-07-08T11:39:45;39.80;1.00
8633;DHT22;4354;49.832;10.746;2023-07-08T11:42:19;39.90;1.00
8633;DHT22;4354;49.832;10.746;2023-07-08T11:44:57;40.10;1.00
8633;DHT22;4354;49.832;10.746;2023-07-08T11:47:38;39.80;1.00
8633;DHT22;4354;49.832;10.746;2023-07-08T11:52:55;39.40;1.00
8633;DHT22;4354;49.832;10.746;2023-07-08T11:55:27;39.50;1.00
8633;DHT22;4354;49.832;10.746;2023-07-08T11:58:00;39.60;1.00
8633;DHT22;4354;49.832;10.746;2023-07-08T12:00:31;39.30;1.00
8633;DHT22;4354;49.832;10.746;2023-07-08T12:03:19;39.00;1.00
8633;DHT22;4354;49.832;10.746;2023-07-08T12:05:46;38.30;1.00
8633;DHT22;4354;49.832;10.746;2023-07-08T12:08:15;38.10;1.00
8633;DHT22;4354;49.832;10.746;2023-07-08T12:10:51;38.00;1.00
8633;DHT22;4354;49.832;10.746;2023-07-08T12:13:22;37.90;1.00
8633;DHT22;4354;49.832;10.746;2023-07-08T12:15:49;38.00;1.00
8633;DHT22;4354;49.832;10.746;2023-07-08T12:18:24;37.90;1.00
8633;DHT22;4354;49.832;10.746;2023-07-08T12:20:56;37.80;1.00
8633;DHT22;4354;49.832;10.746;2023-07-08T12:23:26;37.50;1.00
8633;DHT22;4354;49.832;10.746;2023-07-08T12:25:54;37.50;1.00
8633;DHT22;4354;49.832;10.746;2023-07-08T12:28:23;37.10;1.00
8633;DHT22;4354;49.832;10.746;2023-07-08T12:30:51;36.90;1.00
8633;DHT22;4354;49.832;10.746;2023-07-08T12:33:31;36.90;1.00
8633;DHT22;4354;49.832;10.746;2023-07-08T12:36:00;37.00;1.00
8633;DHT22;4354;49.832;10.746;2023-07-08T12:38:35;36.90;1.00
8633;DHT22;4354;49.832;10.746;2023-07-08T12:41:15;36.60;1.00
8633;DHT22;4354;49.832;10.746;2023-07-08T12:43:43;36.60;1.00
8633;DHT22;4354;49.832;10.746;2023-07-08T12:46:11;36.30;1.00
8633;DHT22;4354;49.832;10.746;2023-07-08T12:48:40;36.20;1.00
8633;DHT22;4354;49.832;10.746;2023-07-08T12:51:11;35.50;1.00
8633;DHT22;4354;49.832;10.746;2023-07-08T12:53:38;35.30;1.00
8633;DHT22;4354;49.832;10.746;2023-07-08T12:56:06;35.40;1.00
8633;DHT22;4354;49.832;10.746;2023-07-08T12:58:42;35.20;1.00
8633;DHT22;4354;49.832;10.746;2023-07-08T13:01:16;34.90;1.00
8633;DHT22;4354;49.832;10.746;2023-07-08T13:03:45;35.10;1.00
8633;DHT22;4354;49.832;10.746;2023-07-08T13:06:17;35.30;1.00
8633;DHT22;4354;49.832;10.746;2023-07-08T13:08:47;35.20;1.00
8633;DHT22;4354;49.832;10.746;2023-07-08T13:11:16;35.00;1.00
8633;DHT22;4354;49.832;10.746;2023-07-08T13:13:50;35.10;1.00
8633;DHT22;4354;49.832;10.746;2023-07-08T13:16:21;35.40;1.00
8633;DHT22;4354;49.832;10.746;2023-07-08T13:18:49;35.70;1.00
8633;DHT22;4354;49.832;10.746;2023-07-08T13:21:16;35.70;1.00
8633;DHT22;4354;49.832;10.746;2023-07-08T13:23:43;35.20;1.00
8633;DHT22;4354;49.832;10.746;2023-07-08T13:26:17;35.10;1.00
8633;DHT22;4354;49.832;10.746;2023-07-08T13:28:45;35.20;1.00
8633;DHT22;4354;49.832;10.746;2023-07-08T13:31:22;35.40;1.00
8633;DHT22;4354;49.832;10.746;2023-07-08T13:33:53;35.40;1.00
8633;DHT22;4354;49.832;10.746;2023-07-08T13:36:33;35.50;1.00
8633;DHT22;4354;49.832;10.746;2023-07-08T13:39:06;35.50;1.00
8633;DHT22;4354;49.832;10.746;2023-07-08T13:41:33;35.50;1.00
8633;DHT22;4354;49.832;10.746;2023-07-08T13:44:08;35.50;1.00
8633;DHT22;4354;49.832;10.746;2023-07-08T13:46:50;35.50;1.00
8633;DHT22;4354;49.832;10.746;2023-07-08T13:49:28;34.90;1.00
8633;DHT22;4354;49.832;10.746;2023-07-08T13:52:16;34.90;1.00
8633;DHT22;4354;49.832;10.746;2023-07-08T13:54:52;34.90;1.00
8633;DHT22;4354;49.832;10.746;2023-07-08T13:57:22;34.70;1.00
8633;DHT22;4354;49.832;10.746;2023-07-08T13:59:50;34.40;1.00
8633;DHT22;4354;49.832;10.746;2023-07-08T14:02:28;34.50;1.00
8633;DHT22;4354;49.832;10.746;2023-07-08T14:04:57;34.50;1.00
8633;DHT22;4354;49.832;10.746;2023-07-08T14:07:31;34.20;1.00
8633;DHT22;4354;49.832;10.746;2023-07-08T14:09:58;33.90;1.00
8633;DHT22;4354;49.832;10.746;2023-07-08T14:12:25;33.80;1.00
8633;DHT22;4354;49.832;10.746;2023-07-08T14:14:52;33.80;1.00
8633;DHT22;4354;49.832;10.746;2023-07-08T14:17:24;33.90;1.00
8633;DHT22;4354;49.832;10.746;2023-07-08T14:19:52;33.80;1.00
8633;DHT22;4354;49.832;10.746;2023-07-08T14:22:25;33.90;1.00
8633;DHT22;4354;49.832;10.746;2023-07-08T14:24:54;34.10;1.00
8633;DHT22;4354;49.832;10.746;2023-07-08T14:27:24;34.20;1.00
8633;DHT22;4354;49.832;10.746;2023-07-08T14:29:51;34.40;1.00
8633;DHT22;4354;49.832;10.746;2023-07-08T14:32:25;34.40;1.00
8633;DHT22;4354;49.832;10.746;2023-07-08T14:35:23;34.50;1.00
8633;DHT22;4354;49.832;10.746;2023-07-08T14:37:48;34.50;1.00
8633;DHT22;4354;49.832;10.746;2023-07-08T14:40:41;34.40;1.00
8633;DHT22;4354;49.832;10.746;2023-07-08T14:43:24;34.50;1.00
8633;DHT22;4354;49.832;10.746;2023-07-08T14:45:55;34.40;1.00
8633;DHT22;4354;49.832;10.746;2023-07-08T14:48:23;34.40;1.00
8633;DHT22;4354;49.832;10.746;2023-07-08T14:50:52;34.20;1.00
8633;DHT22;4354;49.832;10.746;2023-07-08T14:53:19;33.90;1.00
8633;DHT22;4354;49.832;10.746;2023-07-08T14:55:48;33.90;1.00
8633;DHT22;4354;49.832;10.746;2023-07-08T15:00:59;33.80;1.00
8633;DHT22;4354;49.832;10.746;2023-07-08T15:03:27;33.80;1.00
8633;DHT22;4354;49.832;10.746;2023-07-08T15:05:54;33.80;1.00
8633;DHT22;4354;49.832;10.746;2023-07-08T15:08:21;33.70;1.00
8633;DHT22;4354;49.832;10.746;2023-07-08T15:10:51;33.70;1.00
8633;DHT22;4354;49.832;10.746;2023-07-08T15:13:20;33.50;1.00
8633;DHT22;4354;49.832;10.746;2023-07-08T15:15:47;33.50;1.00
8633;DHT22;4354;49.832;10.746;2023-07-08T15:18:16;33.60;1.00
8633;DHT22;4354;49.832;10.746;2023-07-08T15:20:44;33.60;1.00
8633;DHT22;4354;49.832;10.746;2023-07-08T15:23:10;33.60;1.00
8633;DHT22;4354;49.832;10.746;2023-07-08T15:25:43;33.50;1.00
8633;DHT22;4354;49.832;10.746;2023-07-08T15:28:31;33.50;1.00
8633;DHT22;4354;49.832;10.746;2023-07-08T15:31:02;33.50;1.00
8633;DHT22;4354;49.832;10.746;2023-07-08T15:33:30;33.40;1.00
8633;DHT22;4354;49.832;10.746;2023-07-08T15:35:57;33.20;1.00
8633;DHT22;4354;49.832;10.746;2023-07-08T15:38:24;33.10;1.00
8633;DHT22;4354;49.832;10.746;2023-07-08T15:40:52;33.10;1.00
8633;DHT22;4354;49.832;10.746;2023-07-08T15:43:19;32.90;1.00
8633;DHT22;4354;49.832;10.746;2023-07-08T15:45:46;33.00;1.00
8633;DHT22;4354;49.832;10.746;2023-07-08T15:48:14;32.90;1.00
8633;DHT22;4354;49.832;10.746;2023-07-08T15:50:41;32.90;1.00
8633;DHT22;4354;49.832;10.746;2023-07-08T15:53:08;32.90;1.00
8633;DHT22;4354;49.832;10.746;2023-07-08T15:55:39;32.90;1.00
8633;DHT22;4354;49.832;10.746;2023-07-08T15:58:21;32.90;1.00
8633;DHT22;4354;49.832;10.746;2023-07-08T16:00:48;32.90;1.00
8633;DHT22;4354;49.832;10.746;2023-07-08T16:03:29;32.80;1.00
8633;DHT22;4354;49.832;10.746;2023-07-08T16:05:57;32.80;1.00
8633;DHT22;4354;49.832;10.746;2023-07-08T16:08:25;32.80;1.00
8633;DHT22;4354;49.832;10.746;2023-07-08T16:10:58;32.70;1.00
8633;DHT22;4354;49.832;10.746;2023-07-08T16:13:31;32.70;1.00
8633;DHT22;4354;49.832;10.746;2023-07-08T16:15:59;32.50;1.00
8633;DHT22;4354;49.832;10.746;2023-07-08T16:18:26;32.50;1.00
8633;DHT22;4354;49.832;10.746;2023-07-08T16:20:53;32.40;1.00
8633;DHT22;4354;49.832;10.746;2023-07-08T16:23:20;32.30;1.00
8633;DHT22;4354;49.832;10.746;2023-07-08T16:25:49;32.20;1.00
8633;DHT22;4354;49.832;10.746;2023-07-08T16:28:37;32.20;1.00
8633;DHT22;4354;49.832;10.746;2023-07-08T16:31:10;32.10;1.00
8633;DHT22;4354;49.832;10.746;2023-07-08T16:33:38;32.20;1.00
8633;DHT22;4354;49.832;10.746;2023-07-08T16:36:05;32.10;1.00
8633;DHT22;4354;49.832;10.746;2023-07-08T16:38:35;32.10;1.00
8633;DHT22;4354;49.832;10.746;2023-07-08T16:41:02;32.10;1.00
8633;DHT22;4354;49.832;10.746;2023-07-08T16:43:31;32.20;1.00
8633;DHT22;4354;49.832;10.746;2023-07-08T16:45:58;32.20;1.00
8633;DHT22;4354;49.832;10.746;2023-07-08T16:48:25;32.10;1.00
8633;DHT22;4354;49.832;10.746;2023-07-08T16:50:52;32.00;1.00
8633;DHT22;4354;49.832;10.746;2023-07-08T16:53:19;31.90;1.00
8633;DHT22;4354;49.832;10.746;2023-07-08T16:55:48;31.70;1.00
8633;DHT22;4354;49.832;10.746;2023-07-08T16:58:15;31.60;1.00
8633;DHT22;4354;49.832;10.746;2023-07-08T17:00:43;31.50;1.00
8633;DHT22;4354;49.832;10.746;2023-07-08T17:03:13;31.40;1.00
8633;DHT22;4354;49.832;10.746;2023-07-08T17:05:42;31.30;1.00
8633;DHT22;4354;49.832;10.746;2023-07-08T17:08:13;31.30;1.00
8633;DHT22;4354;49.832;10.746;2023-07-08T17:10:41;31.30;1.00
8633;DHT22;4354;49.832;10.746;2023-07-08T17:13:08;31.30;1.00
8633;DHT22;4354;49.832;10.746;2023-07-08T17:15:35;31.30;1.00
8633;DHT22;4354;49.832;10.746;2023-07-08T17:18:04;31.20;1.00
8633;DHT22;4354;49.832;10.746;2023-07-08T17:20:32;31.20;1.00
8633;DHT22;4354;49.832;10.746;2023-07-08T17:23:03;31.20;1.00